sensor_id;sensor_type;location;lat;lon;timestamp;temperature;humidity
8611;DHT22;4343;53.648;10.098;2022-09-03T00:01:47;16.70;93.70
8611;DHT22;4343;53.648;10.098;2022-09-03T00:04:26;16.70;93.80
8611;DHT22;4343;53.648;10.098;2022-09-03T00:07:01;16.70;93.80
8611;DHT22;4343;53.648;10.098;2022-09-03T00:09:34;16.70;93.90
8611;DHT22;4343;53.648;10.098;2022-09-03T00:12:07;16.70;93.80
8611;DHT22;4343;53.648;10.098;2022-09-03T00:14:41;16.60;93.90
8611;DHT22;4343;53.648;10.098;2022-09-03T00:17:15;16.60;93.90
8611;DHT22;4343;53.648;10.098;2022-09-03T00:19:54;16.60;94.00
8611;DHT22;4343;53.648;10.098;2022-09-03T00:22:28;16.60;94.00
8611;DHT22;4343;53.648;10.098;2022-09-03T00:24:57;16.60;94.00
8611;DHT22;4343;53.648;10.098;2022-09-03T00:27:26;16.60;94.00
8611;DHT22;4343;53.648;10.098;2022-09-03T00:30:02;16.50;94.00
8611;DHT22;4343;53.648;10.098;2022-09-03T00:32:39;16.50;94.10
8611;DHT22;4343;53.648;10.098;2022-09-03T00:35:10;16.50;94.00
8611;DHT22;4343;53.648;10.098;2022-09-03T00:37:38;16.50;94.10
8611;DHT22;4343;53.648;10.098;2022-09-03T00:40:10;16.50;94.10
8611;DHT22;4343;53.648;10.098;2022-09-03T00:46:02;16.40;94.20
8611;DHT22;4343;53.648;10.098;2022-09-03T00:48:47;16.40;94.20
8611;DHT22;4343;53.648;10.098;2022-09-03T00:51:39;16.40;94.40
8611;DHT22;4343;53.648;10.098;2022-09-03T00:54:21;16.30;94.40
8611;DHT22;4343;53.648;10.098;2022-09-03T00:59:59;16.30;94.40
8611;DHT22;4343;53.648;10.098;2022-09-03T01:03:04;16.30;94.40
8611;DHT22;4343;53.648;10.098;2022-09-03T01:05:56;16.30;94.40
8611;DHT22;4343;53.648;10.098;2022-09-03T01:11:20;16.20;94.50
8611;DHT22;4343;53.648;10.098;2022-09-03T01:31:17;16.30;94.40
8611;DHT22;4343;53.648;10.098;2022-09-03T01:34:01;16.30;94.50
8611;DHT22;4343;53.648;10.098;2022-09-03T01:36:46;16.30;94.40
8611;DHT22;4343;53.648;10.098;2022-09-03T01:39:43;16.40;94.50
8611;DHT22;4343;53.648;10.098;2022-09-03T01:45:13;16.40;94.50
8611;DHT22;4343;53.648;10.098;2022-09-03T01:48:06;16.40;94.40
8611;DHT22;4343;53.648;10.098;2022-09-03T01:50:57;16.40;94.40
8611;DHT22;4343;53.648;10.098;2022-09-03T01:54:01;16.30;94.30
8611;DHT22;4343;53.648;10.098;2022-09-03T01:56:44;16.30;94.30
8611;DHT22;4343;53.648;10.098;2022-09-03T02:00:03;16.30;94.40
8611;DHT22;4343;53.648;10.098;2022-09-03T03:54:15;15.20;95.20
8611;DHT22;4343;53.648;10.098;2022-09-03T03:56:40;15.20;95.20
8611;DHT22;4343;53.648;10.098;2022-09-03T03:59:06;15.20;95.20
8611;DHT22;4343;53.648;10.098;2022-09-03T04:01:32;15.20;95.20
8611;DHT22;4343;53.648;10.098;2022-09-03T04:03:58;15.20;95.30
8611;DHT22;4343;53.648;10.098;2022-09-03T04:06:25;15.20;95.30
8611;DHT22;4343;53.648;10.098;2022-09-03T04:08:50;15.10;95.20
8611;DHT22;4343;53.648;10.098;2022-09-03T04:11:21;15.10;95.20
8611;DHT22;4343;53.648;10.098;2022-09-03T04:13:48;15.10;95.30
8611;DHT22;4343;53.648;10.098;2022-09-03T04:16:22;15.10;95.30
8611;DHT22;4343;53.648;10.098;2022-09-03T04:18:48;15.10;95.20
8611;DHT22;4343;53.648;10.098;2022-09-03T04:21:16;15.00;95.20
8611;DHT22;4343;53.648;10.098;2022-09-03T04:23:44;15.00;95.20
8611;DHT22;4343;53.648;10.098;2022-09-03T04:26:12;15.00;95.20
8611;DHT22;4343;53.648;10.098;2022-09-03T04:28:39;15.00;95.30
8611;DHT22;4343;53.648;10.098;2022-09-03T04:31:08;15.00;95.30
8611;DHT22;4343;53.648;10.098;2022-09-03T04:33:34;15.00;95.30
8611;DHT22;4343;53.648;10.098;2022-09-03T04:38:33;15.00;95.20
8611;DHT22;4343;53.648;10.098;2022-09-03T04:40:59;15.00;95.20
8611;DHT22;4343;53.648;10.098;2022-09-03T04:43:26;14.90;95.20
8611;DHT22;4343;53.648;10.098;2022-09-03T04:45:55;14.90;95.30
8611;DHT22;4343;53.648;10.098;2022-09-03T04:48:21;14.90;95.30
8611;DHT22;4343;53.648;10.098;2022-09-03T04:50:47;14.90;95.20
8611;DHT22;4343;53.648;10.098;2022-09-03T04:53:12;14.90;95.20
8611;DHT22;4343;53.648;10.098;2022-09-03T04:55:38;14.90;95.20
8611;DHT22;4343;53.648;10.098;2022-09-03T04:58:04;14.90;95.10
8611;DHT22;4343;53.648;10.098;2022-09-03T05:00:32;15.00;95.20
8611;DHT22;4343;53.648;10.098;2022-09-03T05:03:00;14.90;95.10
8611;DHT22;4343;53.648;10.098;2022-09-03T05:05:26;14.90;95.10
8611;DHT22;4343;53.648;10.098;2022-09-03T05:07:52;14.90;95.10
8611;DHT22;4343;53.648;10.098;2022-09-03T05:10:18;14.90;95.00
8611;DHT22;4343;53.648;10.098;2022-09-03T05:12:47;15.00;95.00
8611;DHT22;4343;53.648;10.098;2022-09-03T05:15:14;15.00;95.00
8611;DHT22;4343;53.648;10.098;2022-09-03T05:17:40;15.00;95.10
8611;DHT22;4343;53.648;10.098;2022-09-03T05:20:05;15.00;95.10
8611;DHT22;4343;53.648;10.098;2022-09-03T05:22:33;15.00;95.00
8611;DHT22;4343;53.648;10.098;2022-09-03T05:24:59;15.00;95.00
8611;DHT22;4343;53.648;10.098;2022-09-03T05:27:24;15.00;95.10
8611;DHT22;4343;53.648;10.098;2022-09-03T05:29:50;15.00;95.10
8611;DHT22;4343;53.648;10.098;2022-09-03T05:32:15;15.00;95.10
8611;DHT22;4343;53.648;10.098;2022-09-03T05:34:44;15.00;95.10
8611;DHT22;4343;53.648;10.098;2022-09-03T05:37:10;15.00;95.00
8611;DHT22;4343;53.648;10.098;2022-09-03T05:39:37;15.00;95.10
8611;DHT22;4343;53.648;10.098;2022-09-03T05:42:03;15.00;95.10
8611;DHT22;4343;53.648;10.098;2022-09-03T05:44:28;15.00;95.20
8611;DHT22;4343;53.648;10.098;2022-09-03T05:46:54;15.10;95.20
8611;DHT22;4343;53.648;10.098;2022-09-03T05:49:20;15.00;95.20
8611;DHT22;4343;53.648;10.098;2022-09-03T05:51:45;15.00;95.20
8611;DHT22;4343;53.648;10.098;2022-09-03T05:54:11;15.00;95.20
8611;DHT22;4343;53.648;10.098;2022-09-03T05:56:38;15.00;95.20
8611;DHT22;4343;53.648;10.098;2022-09-03T05:59:06;15.10;95.30
8611;DHT22;4343;53.648;10.098;2022-09-03T06:01:44;15.10;95.20
8611;DHT22;4343;53.648;10.098;2022-09-03T06:04:12;15.10;95.30
8611;DHT22;4343;53.648;10.098;2022-09-03T06:06:40;15.20;95.30
8611;DHT22;4343;53.648;10.098;2022-09-03T06:09:09;15.20;95.30
8611;DHT22;4343;53.648;10.098;2022-09-03T06:11:36;15.20;95.30
8611;DHT22;4343;53.648;10.098;2022-09-03T06:14:03;15.20;95.40
8611;DHT22;4343;53.648;10.098;2022-09-03T06:16:31;15.30;95.50
8611;DHT22;4343;53.648;10.098;2022-09-03T06:18:57;15.30;95.50
8611;DHT22;4343;53.648;10.098;2022-09-03T06:21:23;15.30;95.40
8611;DHT22;4343;53.648;10.098;2022-09-03T06:23:50;15.40;95.40
8611;DHT22;4343;53.648;10.098;2022-09-03T06:26:16;15.50;95.30
8611;DHT22;4343;53.648;10.098;2022-09-03T06:28:42;15.60;95.30
8611;DHT22;4343;53.648;10.098;2022-09-03T06:31:14;15.60;95.10
8611;DHT22;4343;53.648;10.098;2022-09-03T06:33:40;15.80;95.10
8611;DHT22;4343;53.648;10.098;2022-09-03T06:36:11;15.90;95.00
8611;DHT22;4343;53.648;10.098;2022-09-03T06:38:38;16.10;95.00
8611;DHT22;4343;53.648;10.098;2022-09-03T06:41:12;16.20;94.80
8611;DHT22;4343;53.648;10.098;2022-09-03T06:43:40;16.40;94.70
8611;DHT22;4343;53.648;10.098;2022-09-03T06:46:10;16.50;94.50
8611;DHT22;4343;53.648;10.098;2022-09-03T06:48:37;16.70;94.40
8611;DHT22;4343;53.648;10.098;2022-09-03T06:51:08;16.90;94.30
8611;DHT22;4343;53.648;10.098;2022-09-03T06:53:37;17.10;94.00
8611;DHT22;4343;53.648;10.098;2022-09-03T06:56:03;17.30;93.60
8611;DHT22;4343;53.648;10.098;2022-09-03T06:58:30;17.50;93.50
8611;DHT22;4343;53.648;10.098;2022-09-03T07:01:18;17.60;93.30
8611;DHT22;4343;53.648;10.098;2022-09-03T07:03:47;17.80;93.20
8611;DHT22;4343;53.648;10.098;2022-09-03T07:06:15;18.00;93.20
8611;DHT22;4343;53.648;10.098;2022-09-03T07:08:41;18.00;93.00
8611;DHT22;4343;53.648;10.098;2022-09-03T07:11:10;18.00;93.00
8611;DHT22;4343;53.648;10.098;2022-09-03T07:13:37;18.00;93.30
8611;DHT22;4343;53.648;10.098;2022-09-03T07:16:09;18.00;93.30
8611;DHT22;4343;53.648;10.098;2022-09-03T07:18:35;18.00;93.30
8611;DHT22;4343;53.648;10.098;2022-09-03T07:21:03;18.00;93.20
8611;DHT22;4343;53.648;10.098;2022-09-03T07:23:30;17.90;93.10
8611;DHT22;4343;53.648;10.098;2022-09-03T07:25:58;18.00;93.20
8611;DHT22;4343;53.648;10.098;2022-09-03T07:28:25;18.00;93.30
8611;DHT22;4343;53.648;10.098;2022-09-03T07:30:51;18.10;93.20
8611;DHT22;4343;53.648;10.098;2022-09-03T07:33:17;18.20;93.20
8611;DHT22;4343;53.648;10.098;2022-09-03T07:35:44;18.30;93.10
8611;DHT22;4343;53.648;10.098;2022-09-03T07:38:09;18.50;92.70
8611;DHT22;4343;53.648;10.098;2022-09-03T07:40:36;18.70;92.90
8611;DHT22;4343;53.648;10.098;2022-09-03T07:43:04;18.90;92.60
8611;DHT22;4343;53.648;10.098;2022-09-03T07:45:30;19.10;92.50
8611;DHT22;4343;53.648;10.098;2022-09-03T07:47:56;19.40;92.10
8611;DHT22;4343;53.648;10.098;2022-09-03T07:50:23;19.60;91.40
8611;DHT22;4343;53.648;10.098;2022-09-03T07:52:48;19.90;91.40
8611;DHT22;4343;53.648;10.098;2022-09-03T07:55:14;20.20;91.20
8611;DHT22;4343;53.648;10.098;2022-09-03T07:57:40;20.50;90.90
8611;DHT22;4343;53.648;10.098;2022-09-03T08:00:06;20.70;90.60
8611;DHT22;4343;53.648;10.098;2022-09-03T08:02:35;21.00;90.40
8611;DHT22;4343;53.648;10.098;2022-09-03T08:05:01;21.20;90.20
8611;DHT22;4343;53.648;10.098;2022-09-03T08:07:28;21.40;90.00
8611;DHT22;4343;53.648;10.098;2022-09-03T08:09:54;21.60;89.40
8611;DHT22;4343;53.648;10.098;2022-09-03T08:12:20;21.70;88.70
8611;DHT22;4343;53.648;10.098;2022-09-03T08:14:46;21.80;88.60
8611;DHT22;4343;53.648;10.098;2022-09-03T08:17:12;21.80;88.60
8611;DHT22;4343;53.648;10.098;2022-09-03T08:19:38;21.80;88.50
8611;DHT22;4343;53.648;10.098;2022-09-03T08:22:05;21.90;88.40
8611;DHT22;4343;53.648;10.098;2022-09-03T08:24:30;21.90;88.20
8611;DHT22;4343;53.648;10.098;2022-09-03T08:26:58;21.80;88.60
8611;DHT22;4343;53.648;10.098;2022-09-03T08:29:25;21.80;89.40
8611;DHT22;4343;53.648;10.098;2022-09-03T08:31:52;21.70;89.60
8611;DHT22;4343;53.648;10.098;2022-09-03T08:34:18;21.70;88.50
8611;DHT22;4343;53.648;10.098;2022-09-03T08:36:44;21.80;88.80
8611;DHT22;4343;53.648;10.098;2022-09-03T08:39:11;21.70;88.40
8611;DHT22;4343;53.648;10.098;2022-09-03T08:47:28;21.80;88.60
8611;DHT22;4343;53.648;10.098;2022-09-03T08:52:46;21.80;89.50
8611;DHT22;4343;53.648;10.098;2022-09-03T08:55:33;21.90;89.20
8611;DHT22;4343;53.648;10.098;2022-09-03T08:58:16;22.10;88.90
8611;DHT22;4343;53.648;10.098;2022-09-03T09:01:03;22.10;89.00
8611;DHT22;4343;53.648;10.098;2022-09-03T09:03:41;22.10;88.70
8611;DHT22;4343;53.648;10.098;2022-09-03T09:14:38;22.70;86.00
8611;DHT22;4343;53.648;10.098;2022-09-03T09:25:07;23.20;85.10
8611;DHT22;4343;53.648;10.098;2022-09-03T09:27:33;23.40;84.40
8611;DHT22;4343;53.648;10.098;2022-09-03T09:30:04;23.40;83.20
8611;DHT22;4343;53.648;10.098;2022-09-03T09:32:30;23.40;83.50
8611;DHT22;4343;53.648;10.098;2022-09-03T09:34:56;23.30;83.60
8611;DHT22;4343;53.648;10.098;2022-09-03T09:37:22;23.30;82.90
8611;DHT22;4343;53.648;10.098;2022-09-03T09:39:59;23.30;84.00
8611;DHT22;4343;53.648;10.098;2022-09-03T09:42:25;23.20;84.10
8611;DHT22;4343;53.648;10.098;2022-09-03T09:44:52;23.20;83.70
8611;DHT22;4343;53.648;10.098;2022-09-03T09:47:34;23.10;83.40
8611;DHT22;4343;53.648;10.098;2022-09-03T09:50:02;23.10;84.60
8611;DHT22;4343;53.648;10.098;2022-09-03T09:52:29;23.10;84.90
8611;DHT22;4343;53.648;10.098;2022-09-03T09:55:12;23.20;83.00
8611;DHT22;4343;53.648;10.098;2022-09-03T09:57:38;23.30;83.10
8611;DHT22;4343;53.648;10.098;2022-09-03T10:00:14;23.50;83.20
8611;DHT22;4343;53.648;10.098;2022-09-03T10:02:48;23.70;82.00
8611;DHT22;4343;53.648;10.098;2022-09-03T10:05:20;23.70;82.10
8611;DHT22;4343;53.648;10.098;2022-09-03T10:07:58;23.70;80.30
8611;DHT22;4343;53.648;10.098;2022-09-03T10:10:26;23.70;79.80
8611;DHT22;4343;53.648;10.098;2022-09-03T10:13:41;23.70;79.00
8611;DHT22;4343;53.648;10.098;2022-09-03T10:16:28;23.70;77.80
8611;DHT22;4343;53.648;10.098;2022-09-03T10:19:17;23.80;77.30
8611;DHT22;4343;53.648;10.098;2022-09-03T10:22:09;23.90;77.70
8611;DHT22;4343;53.648;10.098;2022-09-03T10:24:59;24.00;78.30
8611;DHT22;4343;53.648;10.098;2022-09-03T10:27:27;24.20;77.90
8611;DHT22;4343;53.648;10.098;2022-09-03T10:29:53;24.40;77.30
8611;DHT22;4343;53.648;10.098;2022-09-03T10:34:55;24.70;76.70
8611;DHT22;4343;53.648;10.098;2022-09-03T10:37:46;24.70;76.00
8611;DHT22;4343;53.648;10.098;2022-09-03T10:48:49;25.20;73.50
8611;DHT22;4343;53.648;10.098;2022-09-03T10:51:27;25.40;72.60
8611;DHT22;4343;53.648;10.098;2022-09-03T10:54:18;25.60;73.30
8611;DHT22;4343;53.648;10.098;2022-09-03T11:00:05;25.60;71.00
8611;DHT22;4343;53.648;10.098;2022-09-03T11:06:12;25.80;71.50
8611;DHT22;4343;53.648;10.098;2022-09-03T11:11:33;25.80;69.80
8611;DHT22;4343;53.648;10.098;2022-09-03T11:14:07;25.70;70.20
8611;DHT22;4343;53.648;10.098;2022-09-03T11:16:38;25.60;70.90
8611;DHT22;4343;53.648;10.098;2022-09-03T11:19:08;25.60;70.60
8611;DHT22;4343;53.648;10.098;2022-09-03T11:21:40;25.50;71.10
8611;DHT22;4343;53.648;10.098;2022-09-03T11:24:18;25.50;71.20
8611;DHT22;4343;53.648;10.098;2022-09-03T11:26:51;25.30;71.80
8611;DHT22;4343;53.648;10.098;2022-09-03T11:29:33;25.30;72.90
8611;DHT22;4343;53.648;10.098;2022-09-03T11:32:08;25.40;73.30
8611;DHT22;4343;53.648;10.098;2022-09-03T11:34:49;25.60;71.90
8611;DHT22;4343;53.648;10.098;2022-09-03T11:37:24;25.80;71.70
8611;DHT22;4343;53.648;10.098;2022-09-03T11:40:15;26.10;69.20
8611;DHT22;4343;53.648;10.098;2022-09-03T11:42:46;26.30;68.80
8611;DHT22;4343;53.648;10.098;2022-09-03T11:47:44;26.90;68.30
8611;DHT22;4343;53.648;10.098;2022-09-03T11:50:28;27.10;68.10
8611;DHT22;4343;53.648;10.098;2022-09-03T12:00:54;27.40;64.80
8611;DHT22;4343;53.648;10.098;2022-09-03T12:03:26;27.40;65.80
8611;DHT22;4343;53.648;10.098;2022-09-03T12:06:12;27.30;65.90
8611;DHT22;4343;53.648;10.098;2022-09-03T12:17:04;27.70;62.80
8611;DHT22;4343;53.648;10.098;2022-09-03T12:19:51;27.80;63.40
8611;DHT22;4343;53.648;10.098;2022-09-03T12:22:19;27.80;63.20
8611;DHT22;4343;53.648;10.098;2022-09-03T12:24:45;27.90;63.30
8611;DHT22;4343;53.648;10.098;2022-09-03T12:27:15;28.00;63.20
8611;DHT22;4343;53.648;10.098;2022-09-03T12:29:55;28.10;63.80
8611;DHT22;4343;53.648;10.098;2022-09-03T12:32:25;28.30;62.70
8611;DHT22;4343;53.648;10.098;2022-09-03T12:34:51;28.40;62.40
8611;DHT22;4343;53.648;10.098;2022-09-03T12:37:25;28.50;62.20
8611;DHT22;4343;53.648;10.098;2022-09-03T12:39:54;28.70;62.70
8611;DHT22;4343;53.648;10.098;2022-09-03T12:42:29;28.80;60.90
8611;DHT22;4343;53.648;10.098;2022-09-03T12:45:04;28.90;60.60
8611;DHT22;4343;53.648;10.098;2022-09-03T12:47:30;29.00;60.70
8611;DHT22;4343;53.648;10.098;2022-09-03T12:50:10;29.10;60.50
8611;DHT22;4343;53.648;10.098;2022-09-03T12:52:58;29.10;60.00
8611;DHT22;4343;53.648;10.098;2022-09-03T12:55:33;29.10;60.40
8611;DHT22;4343;53.648;10.098;2022-09-03T12:58:41;29.20;60.40
8611;DHT22;4343;53.648;10.098;2022-09-03T13:01:15;29.30;60.00
8611;DHT22;4343;53.648;10.098;2022-09-03T13:04:08;29.40;58.60
8611;DHT22;4343;53.648;10.098;2022-09-03T13:06:45;29.40;58.80
8611;DHT22;4343;53.648;10.098;2022-09-03T13:09:15;29.40;58.80
8611;DHT22;4343;53.648;10.098;2022-09-03T13:11:43;29.40;58.80
8611;DHT22;4343;53.648;10.098;2022-09-03T13:14:11;29.50;58.80
8611;DHT22;4343;53.648;10.098;2022-09-03T13:30:18;29.40;58.80
8611;DHT22;4343;53.648;10.098;2022-09-03T13:43:44;28.80;58.60
8611;DHT22;4343;53.648;10.098;2022-09-03T13:46:28;28.70;59.00
8611;DHT22;4343;53.648;10.098;2022-09-03T13:49:33;28.50;59.40
8611;DHT22;4343;53.648;10.098;2022-09-03T13:55:34;28.10;59.20
8611;DHT22;4343;53.648;10.098;2022-09-03T13:58:10;28.10;59.50
8611;DHT22;4343;53.648;10.098;2022-09-03T14:00:49;28.00;59.40
8611;DHT22;4343;53.648;10.098;2022-09-03T14:04:02;27.90;60.20
8611;DHT22;4343;53.648;10.098;2022-09-03T14:06:38;27.90;59.90
8611;DHT22;4343;53.648;10.098;2022-09-03T14:09:18;27.80;59.60
8611;DHT22;4343;53.648;10.098;2022-09-03T14:12:16;27.60;59.40
8611;DHT22;4343;53.648;10.098;2022-09-03T14:14:57;27.20;60.00
8611;DHT22;4343;53.648;10.098;2022-09-03T14:20:27;26.80;61.20
8611;DHT22;4343;53.648;10.098;2022-09-03T14:26:05;26.80;60.60
8611;DHT22;4343;53.648;10.098;2022-09-03T14:28:47;26.70;60.20
8611;DHT22;4343;53.648;10.098;2022-09-03T14:35:16;26.60;60.90
8611;DHT22;4343;53.648;10.098;2022-09-03T14:40:45;26.40;61.30
8611;DHT22;4343;53.648;10.098;2022-09-03T14:46:23;26.10;62.30
8611;DHT22;4343;53.648;10.098;2022-09-03T14:49:10;26.00;62.20
8611;DHT22;4343;53.648;10.098;2022-09-03T14:51:52;25.80;62.80
8611;DHT22;4343;53.648;10.098;2022-09-03T14:57:03;25.30;62.40
8611;DHT22;4343;53.648;10.098;2022-09-03T15:08:22;24.60;64.10
8611;DHT22;4343;53.648;10.098;2022-09-03T15:10:59;24.40;64.70
8611;DHT22;4343;53.648;10.098;2022-09-03T15:13:30;24.30;64.30
8611;DHT22;4343;53.648;10.098;2022-09-03T15:24:36;23.70;65.00
8611;DHT22;4343;53.648;10.098;2022-09-03T15:35:42;23.40;66.10
8611;DHT22;4343;53.648;10.098;2022-09-03T15:38:18;23.20;66.10
8611;DHT22;4343;53.648;10.098;2022-09-03T15:43:20;23.10;66.80
8611;DHT22;4343;53.648;10.098;2022-09-03T15:45:59;23.00;67.60
8611;DHT22;4343;53.648;10.098;2022-09-03T15:48:35;22.90;67.60
8611;DHT22;4343;53.648;10.098;2022-09-03T15:51:29;22.90;67.50
8611;DHT22;4343;53.648;10.098;2022-09-03T15:54:09;22.80;67.80
8611;DHT22;4343;53.648;10.098;2022-09-03T15:56:46;22.80;67.10
8611;DHT22;4343;53.648;10.098;2022-09-03T15:59:18;22.70;67.00
8611;DHT22;4343;53.648;10.098;2022-09-03T16:07:36;22.50;67.90
8611;DHT22;4343;53.648;10.098;2022-09-03T16:10:16;22.60;68.40
8611;DHT22;4343;53.648;10.098;2022-09-03T16:15:47;22.40;68.40
8611;DHT22;4343;53.648;10.098;2022-09-03T16:21:30;22.30;69.30
8611;DHT22;4343;53.648;10.098;2022-09-03T16:24:02;22.30;69.20
8611;DHT22;4343;53.648;10.098;2022-09-03T16:29:14;22.10;70.10
8611;DHT22;4343;53.648;10.098;2022-09-03T16:32:48;22.10;70.60
8611;DHT22;4343;53.648;10.098;2022-09-03T16:34:54;22.00;71.20
8611;DHT22;4343;53.648;10.098;2022-09-03T16:42:58;21.80;71.20
8611;DHT22;4343;53.648;10.098;2022-09-03T16:48:38;21.80;71.00
8611;DHT22;4343;53.648;10.098;2022-09-03T17:00:16;21.60;72.30
8611;DHT22;4343;53.648;10.098;2022-09-03T17:14:01;21.40;73.00
8611;DHT22;4343;53.648;10.098;2022-09-03T17:19:34;21.20;73.60
8611;DHT22;4343;53.648;10.098;2022-09-03T17:22:20;21.20;73.60
8611;DHT22;4343;53.648;10.098;2022-09-03T17:24:55;21.10;73.30
8611;DHT22;4343;53.648;10.098;2022-09-03T17:27:56;21.10;73.40
8611;DHT22;4343;53.648;10.098;2022-09-03T17:30:57;21.10;73.40
8611;DHT22;4343;53.648;10.098;2022-09-03T17:36:27;20.90;73.20
8611;DHT22;4343;53.648;10.098;2022-09-03T17:39:03;20.90;73.20
8611;DHT22;4343;53.648;10.098;2022-09-03T17:41:35;20.90;74.20
8611;DHT22;4343;53.648;10.098;2022-09-03T17:49:44;20.70;74.70
8611;DHT22;4343;53.648;10.098;2022-09-03T17:54:49;20.70;74.60
8611;DHT22;4343;53.648;10.098;2022-09-03T17:57:31;20.60;74.60
8611;DHT22;4343;53.648;10.098;2022-09-03T18:00:07;20.70;75.10
8611;DHT22;4343;53.648;10.098;2022-09-03T18:02:44;20.60;75.00
8611;DHT22;4343;53.648;10.098;2022-09-03T18:05:21;20.60;75.30
8611;DHT22;4343;53.648;10.098;2022-09-03T18:10:38;20.50;75.70
8611;DHT22;4343;53.648;10.098;2022-09-03T18:15:53;20.40;76.00
8611;DHT22;4343;53.648;10.098;2022-09-03T18:18:30;20.30;76.30
8611;DHT22;4343;53.648;10.098;2022-09-03T18:20:58;20.40;76.90
8611;DHT22;4343;53.648;10.098;2022-09-03T18:26:35;20.30;77.10
8611;DHT22;4343;53.648;10.098;2022-09-03T18:29:36;20.20;77.10
8611;DHT22;4343;53.648;10.098;2022-09-03T18:32:22;20.20;77.20
8611;DHT22;4343;53.648;10.098;2022-09-03T18:35:08;20.30;77.30
8611;DHT22;4343;53.648;10.098;2022-09-03T18:37:52;20.20;77.20
8611;DHT22;4343;53.648;10.098;2022-09-03T18:40:46;20.20;77.50
8611;DHT22;4343;53.648;10.098;2022-09-03T18:47:03;20.20;77.70
8611;DHT22;4343;53.648;10.098;2022-09-03T18:53:09;20.10;77.90
8611;DHT22;4343;53.648;10.098;2022-09-03T18:56:23;20.00;78.10
8611;DHT22;4343;53.648;10.098;2022-09-03T19:01:54;20.00;79.10
8611;DHT22;4343;53.648;10.098;2022-09-03T19:07:33;19.90;79.40
8611;DHT22;4343;53.648;10.098;2022-09-03T19:10:27;19.90;79.50
8611;DHT22;4343;53.648;10.098;2022-09-03T19:22:01;19.70;79.80
8611;DHT22;4343;53.648;10.098;2022-09-03T19:24:51;19.70;79.90
8611;DHT22;4343;53.648;10.098;2022-09-03T19:30:46;19.60;80.00
8611;DHT22;4343;53.648;10.098;2022-09-03T19:46:26;19.20;82.10
8611;DHT22;4343;53.648;10.098;2022-09-03T19:50:20;19.10;81.80
8611;DHT22;4343;53.648;10.098;2022-09-03T19:55:31;19.00;81.30
8611;DHT22;4343;53.648;10.098;2022-09-03T19:58:20;19.00;82.10
8611;DHT22;4343;53.648;10.098;2022-09-03T20:01:05;18.90;81.90
8611;DHT22;4343;53.648;10.098;2022-09-03T20:03:51;18.90;82.00
8611;DHT22;4343;53.648;10.098;2022-09-03T20:06:35;18.70;81.90
8611;DHT22;4343;53.648;10.098;2022-09-03T20:09:27;18.70;82.30
8611;DHT22;4343;53.648;10.098;2022-09-03T20:12:12;18.60;82.60
8611;DHT22;4343;53.648;10.098;2022-09-03T20:14:41;18.60;82.50
8611;DHT22;4343;53.648;10.098;2022-09-03T20:17:32;18.50;82.50
8611;DHT22;4343;53.648;10.098;2022-09-03T20:20:16;18.40;82.70
8611;DHT22;4343;53.648;10.098;2022-09-03T20:22:59;18.40;83.10
8611;DHT22;4343;53.648;10.098;2022-09-03T20:26:04;18.30;83.00
8611;DHT22;4343;53.648;10.098;2022-09-03T20:28:43;18.30;83.40
8611;DHT22;4343;53.648;10.098;2022-09-03T20:31:26;18.20;83.70
8611;DHT22;4343;53.648;10.098;2022-09-03T20:44:42;18.00;84.40
8611;DHT22;4343;53.648;10.098;2022-09-03T20:50:35;18.00;84.80
8611;DHT22;4343;53.648;10.098;2022-09-03T20:53:39;17.90;85.10
8611;DHT22;4343;53.648;10.098;2022-09-03T20:59:16;17.90;86.60
8611;DHT22;4343;53.648;10.098;2022-09-03T21:10:27;17.90;88.80
8611;DHT22;4343;53.648;10.098;2022-09-03T21:21:10;17.80;90.30
8611;DHT22;4343;53.648;10.098;2022-09-03T21:23:46;17.70;90.50
8611;DHT22;4343;53.648;10.098;2022-09-03T21:26:26;17.70;90.80
8611;DHT22;4343;53.648;10.098;2022-09-03T21:29:07;17.70;90.80
8611;DHT22;4343;53.648;10.098;2022-09-03T21:37:30;17.60;91.20
8611;DHT22;4343;53.648;10.098;2022-09-03T21:39:58;17.60;91.60
8611;DHT22;4343;53.648;10.098;2022-09-03T21:42:37;17.50;91.60
8611;DHT22;4343;53.648;10.098;2022-09-03T21:48:19;17.40;92.10
8611;DHT22;4343;53.648;10.098;2022-09-03T21:50:57;17.40;92.10
8611;DHT22;4343;53.648;10.098;2022-09-03T21:53:39;17.40;92.20
8611;DHT22;4343;53.648;10.098;2022-09-03T22:02:36;17.30;92.90
8611;DHT22;4343;53.648;10.098;2022-09-03T22:05:03;17.30;93.30
8611;DHT22;4343;53.648;10.098;2022-09-03T22:07:38;17.30;93.30
8611;DHT22;4343;53.648;10.098;2022-09-03T22:13:06;17.20;93.60
8611;DHT22;4343;53.648;10.098;2022-09-03T22:15:40;17.20;93.90
8611;DHT22;4343;53.648;10.098;2022-09-03T22:18:27;17.20;94.00
8611;DHT22;4343;53.648;10.098;2022-09-03T22:21:09;17.20;94.20
8611;DHT22;4343;53.648;10.098;2022-09-03T22:29:29;17.10;94.50
8611;DHT22;4343;53.648;10.098;2022-09-03T22:37:03;17.00;94.80
8611;DHT22;4343;53.648;10.098;2022-09-03T22:39:37;17.00;94.70
8611;DHT22;4343;53.648;10.098;2022-09-03T22:44:44;17.00;95.00
8611;DHT22;4343;53.648;10.098;2022-09-03T22:49:50;17.00;95.30
8611;DHT22;4343;53.648;10.098;2022-09-03T22:52:29;16.90;95.30
8611;DHT22;4343;53.648;10.098;2022-09-03T22:55:25;16.90;95.40
8611;DHT22;4343;53.648;10.098;2022-09-03T23:00:48;16.90;95.50
8611;DHT22;4343;53.648;10.098;2022-09-03T23:03:24;16.80;95.70
8611;DHT22;4343;53.648;10.098;2022-09-03T23:06:25;16.80;95.70
8611;DHT22;4343;53.648;10.098;2022-09-03T23:08:55;16.80;95.90
8611;DHT22;4343;53.648;10.098;2022-09-03T23:11:40;16.70;95.80
8611;DHT22;4343;53.648;10.098;2022-09-03T23:14:10;16.70;95.80
8611;DHT22;4343;53.648;10.098;2022-09-03T23:16:38;16.70;96.20
8611;DHT22;4343;53.648;10.098;2022-09-03T23:19:20;16.70;96.20
8611;DHT22;4343;53.648;10.098;2022-09-03T23:21:56;16.70;96.20
8611;DHT22;4343;53.648;10.098;2022-09-03T23:27:26;16.60;96.20
8611;DHT22;4343;53.648;10.098;2022-09-03T23:29:59;16.60;96.30
8611;DHT22;4343;53.648;10.098;2022-09-03T23:32:27;16.60;96.40
8611;DHT22;4343;53.648;10.098;2022-09-03T23:34:55;16.60;96.50
8611;DHT22;4343;53.648;10.098;2022-09-03T23:37:50;16.50;96.40
8611;DHT22;4343;53.648;10.098;2022-09-03T23:45:53;16.50;96.60
8611;DHT22;4343;53.648;10.098;2022-09-03T23:59:47;16.40;96.70
